Time;durP1;ratioP1;P1;durP2;ratioP2;P2;SDS_P1;SDS_P2;PMS_P1;PMS_P2;Temp;Humidity;BMP_temperature;BMP_pressure;BME280_temperature;BME280_humidity;BME280_pressure;Samples;Min_cycle;Max_cycle;Signal;HPM_P1;HPM_P2
2021/09/14 00:02:13;;;;;;;2.05;1.00;;;;;;;8.53;100.00;101581.44;4786150;29;20091;-78
2021/09/14 00:04:40;;;;;;;3.35;1.00;;;;;;;8.45;100.00;101571.53;4791137;29;20039;-78
2021/09/14 00:07:06;;;;;;;4.75;0.93;;;;;;;8.46;100.00;101574.03;4787820;29;20031;-78
2021/09/14 00:09:31;;;;;;;3.10;1.30;;;;;;;8.53;100.00;101581.44;4792144;29;20038;-78
2021/09/14 00:11:59;;;;;;;1.92;1.20;;;;;;;8.38;100.00;101555.28;4812647;29;20370;-78
2021/09/14 00:14:25;;;;;;;4.80;1.38;;;;;;;8.57;100.00;101586.28;4802807;29;20053;-78
2021/09/14 00:16:50;;;;;;;2.30;1.10;;;;;;;8.34;100.00;101542.31;4791017;29;20382;-78
2021/09/14 00:19:16;;;;;;;2.70;1.02;;;;;;;8.62;100.00;101580.44;4790589;29;20031;-78
2021/09/14 00:21:43;;;;;;;2.22;1.00;;;;;;;8.55;100.00;101571.38;4806852;29;20034;-78
2021/09/14 00:24:09;;;;;;;4.22;1.05;;;;;;;8.58;100.00;101576.41;4790592;29;20469;-78
2021/09/14 00:26:35;;;;;;;3.58;1.05;;;;;;;8.54;100.00;101575.06;4772923;29;20046;-78
2021/09/14 00:29:00;;;;;;;3.20;1.00;;;;;;;8.44;100.00;101554.63;4772829;30;20043;-78
2021/09/14 00:31:27;;;;;;;3.55;1.00;;;;;;;8.49;100.00;101553.28;4770954;29;20028;-78
2021/09/14 00:33:53;;;;;;;1.92;1.20;;;;;;;8.36;100.00;101533.13;4809126;29;20035;-78
2021/09/14 00:36:18;;;;;;;2.88;1.00;;;;;;;8.33;100.00;101530.75;4810156;29;20072;-78
2021/09/14 00:38:44;;;;;;;2.83;1.20;;;;;;;8.53;100.00;101573.38;4811435;29;20068;-78
2021/09/14 00:41:09;;;;;;;2.85;1.20;;;;;;;8.49;100.00;101577.41;4796710;29;20035;-78
2021/09/14 00:43:35;;;;;;;3.28;1.00;;;;;;;8.21;100.00;101543.66;4791200;29;20034;-78
2021/09/14 00:46:00;;;;;;;2.53;1.00;;;;;;;8.32;100.00;101561.28;4790608;29;20034;-78
2021/09/14 00:48:26;;;;;;;5.03;1.00;;;;;;;8.25;100.00;101562.94;4808757;29;20042;-78
2021/09/14 00:50:51;;;;;;;1.77;0.93;;;;;;;8.17;100.00;101558.38;4791284;29;20042;-78
2021/09/14 00:53:19;;;;;;;3.05;1.02;;;;;;;8.23;100.00;101560.41;4791260;29;20031;-78
2021/09/14 00:55:45;;;;;;;1.08;0.90;;;;;;;7.92;100.00;101528.03;4805180;29;20502;-78
2021/09/14 00:58:11;;;;;;;3.53;1.00;;;;;;;8.16;100.00;101572.81;4796567;29;20038;-78
2021/09/14 01:00:36;;;;;;;4.05;1.00;;;;;;;8.16;100.00;101572.81;4790184;29;20030;-78
2021/09/14 01:03:02;;;;;;;1.67;1.00;;;;;;;8.08;100.00;101572.78;4790960;29;20168;-78
2021/09/14 01:05:29;;;;;;;1.02;0.90;;;;;;;7.94;100.00;101551.97;4806156;29;20031;-78
2021/09/14 01:07:54;;;;;;;7.68;1.35;;;;;;;8.07;100.00;101578.31;4804935;29;20038;-77
2021/09/14 01:10:20;;;;;;;3.30;1.20;;;;;;;7.95;100.00;101559.03;4790656;29;20491;-78
2021/09/14 01:12:47;;;;;;;2.03;0.80;;;;;;;7.91;100.00;101557.66;4779385;29;20030;-78
2021/09/14 01:15:13;;;;;;;2.05;0.90;;;;;;;7.82;100.00;101546.09;4791929;29;20147;-78
2021/09/14 01:17:39;;;;;;;3.40;1.13;;;;;;;7.85;100.00;101555.66;4790699;30;20363;-77
2021/09/14 01:20:05;;;;;;;4.60;1.20;;;;;;;7.92;100.00;101570.06;4794266;30;20055;-78
2021/09/14 01:22:34;;;;;;;2.10;1.23;;;;;;;7.91;100.00;101566.56;4791184;29;20394;-78
2021/09/14 01:25:02;;;;;;;1.77;1.10;;;;;;;7.81;100.00;101556.94;4783775;29;20039;-78
2021/09/14 01:27:27;;;;;;;2.20;1.05;;;;;;;7.92;100.00;101570.06;4804980;29;20034;-78
2021/09/14 01:30:18;;;;;;;3.65;1.52;;;;;;;7.85;100.00;101555.66;4788803;29;20046;-78
2021/09/14 01:32:45;;;;;;;4.43;1.10;;;;;;;7.90;100.00;101558.66;4790154;29;20039;-78
2021/09/14 01:35:18;;;;;;;5.82;1.10;;;;;;;7.88;100.00;101555.28;4805629;29;20576;-78
2021/09/14 01:37:44;;;;;;;3.23;1.07;;;;;;;7.92;100.00;101549.47;4806895;29;20050;-78
2021/09/14 01:40:10;;;;;;;3.17;1.40;;;;;;;8.02;100.00;101565.41;4808666;29;20730;-78
2021/09/14 01:42:36;;;;;;;2.65;1.38;;;;;;;8.04;100.00;101570.59;4807602;29;20107;-78
2021/09/14 01:45:03;;;;;;;4.82;1.33;;;;;;;8.02;100.00;101567.25;4793351;29;20066;-78
2021/09/14 01:47:35;;;;;;;1.77;1.13;;;;;;;8.01;100.00;101569.06;4809398;29;20058;-78
2021/09/14 01:50:06;;;;;;;3.75;1.30;;;;;;;8.02;100.00;101569.94;4790076;29;20041;-78
2021/09/14 01:52:33;;;;;;;3.63;1.30;;;;;;;8.12;100.00;101567.94;4791032;30;20035;-78
2021/09/14 01:55:08;;;;;;;2.08;1.20;;;;;;;8.15;100.00;101570.31;4798235;29;20038;-78
2021/09/14 01:57:35;;;;;;;;;;;;;;;8.09;100.00;101568.28;4810589;29;20404;-78
2021/09/14 02:00:07;;;;;;;4.97;1.50;;;;;;;8.10;100.00;101553.84;4793043;29;20011;-78
2021/09/14 02:59:03;;;;;;;3.47;1.20;;;;;;;8.34;100.00;101572.66;4789900;29;20433;-78
2021/09/14 03:01:29;;;;;;;4.57;1.23;;;;;;;8.09;100.00;101546.81;4796183;29;20110;-78
2021/09/14 03:03:56;;;;;;;2.17;1.50;;;;;;;8.06;100.00;101564.06;4811036;29;20121;-78
2021/09/14 03:06:23;;;;;;;3.40;1.30;;;;;;;8.02;100.00;101569.94;4791512;29;20122;-78
2021/09/14 03:08:50;;;;;;;3.33;1.25;;;;;;;7.67;100.00;101545.03;4792041;29;20122;-78
2021/09/14 03:11:19;;;;;;;2.50;1.40;;;;;;;7.75;100.00;101579.91;4807911;29;20057;-78
2021/09/14 03:13:44;;;;;;;2.92;1.10;;;;;;;7.70;100.00;101572.31;4793362;29;20081;-78
2021/09/14 03:16:11;;;;;;;1.83;1.15;;;;;;;7.65;100.00;101582.69;4808623;29;20051;-78
2021/09/14 03:18:38;;;;;;;3.10;1.13;;;;;;;7.59;100.00;101577.16;4807076;29;20035;-78
2021/09/14 03:21:05;;;;;;;4.35;1.00;;;;;;;7.52;100.00;101574.28;4792909;29;20035;-78
2021/09/14 03:23:31;;;;;;;2.60;1.17;;;;;;;7.49;100.00;101569.22;4792211;29;20522;-78
2021/09/14 03:25:57;;;;;;;1.75;1.00;;;;;;;7.46;100.00;101574.91;4794449;29;20035;-78
2021/09/14 03:28:24;;;;;;;2.10;1.40;;;;;;;7.42;100.00;101577.06;4797520;29;20027;-78
2021/09/14 03:30:49;;;;;;;3.08;1.08;;;;;;;7.25;100.00;101551.19;4797829;29;20351;-77
2021/09/14 03:33:16;;;;;;;3.90;1.20;;;;;;;7.36;100.00;101558.97;4781978;29;20041;-77
2021/09/14 03:35:42;;;;;;;1.10;1.00;;;;;;;7.45;100.00;101567.84;4793567;29;20110;-78
2021/09/14 03:38:09;;;;;;;4.47;1.20;;;;;;;7.46;100.00;101577.59;4797928;29;20057;-78
2021/09/14 03:40:35;;;;;;;3.65;1.40;;;;;;;7.52;100.00;101564.41;4806496;29;20039;-77
2021/09/14 03:43:00;;;;;;;5.07;1.60;;;;;;;7.45;100.00;101538.41;4807434;29;20111;-78
2021/09/14 03:45:27;;;;;;;6.40;1.48;;;;;;;7.63;100.00;101559.75;4776865;29;20111;-78
2021/09/14 03:47:52;;;;;;;2.15;1.20;;;;;;;7.70;100.00;101566.13;4775709;29;20069;-78
2021/09/14 03:50:18;;;;;;;3.58;1.80;;;;;;;7.56;100.00;101534.63;4789826;29;20080;-78
2021/09/14 03:52:43;;;;;;;3.90;2.00;;;;;;;7.89;100.00;101576.59;4791372;29;20134;-78
2021/09/14 03:55:09;;;;;;;6.10;2.20;;;;;;;7.81;100.00;101547.06;4790717;29;20402;-77
2021/09/14 03:57:35;;;;;;;4.63;2.22;;;;;;;7.97;100.00;101570.41;4806201;29;20042;-78
2021/09/14 04:00:00;;;;;;;3.83;2.03;;;;;;;8.06;100.00;101573.97;4806762;29;20031;-78
2021/09/14 04:10:03;;;;;;;6.90;2.47;;;;;;;8.24;100.00;101586.25;4803668;29;20039;-78
2021/09/14 04:12:29;;;;;;;6.88;2.55;;;;;;;8.43;100.00;101584.28;4786785;29;20088;-78
2021/09/14 04:14:54;;;;;;;5.65;2.50;;;;;;;8.53;100.00;101584.13;4802497;29;20136;-78
2021/09/14 04:17:20;;;;;;;5.43;2.20;;;;;;;8.60;100.00;101588.63;4805110;29;20450;-78
2021/09/14 04:19:45;;;;;;;5.57;2.60;;;;;;;8.70;100.00;101588.47;4789997;29;20098;-79
2021/09/14 04:22:10;;;;;;;4.00;2.10;;;;;;;8.75;100.00;101588.81;4798483;29;20117;-78
2021/09/14 04:24:36;;;;;;;3.08;1.98;;;;;;;8.72;100.00;101580.28;4789354;29;20035;-78
2021/09/14 04:27:01;;;;;;;5.35;2.30;;;;;;;8.70;100.00;101580.41;4762243;29;20118;-78
2021/09/14 04:29:27;;;;;;;4.07;2.30;;;;;;;8.55;100.00;101555.28;4780752;29;20035;-78
2021/09/14 04:31:53;;;;;;;7.35;2.58;;;;;;;8.71;100.00;101579.44;4786655;29;20019;-78
2021/09/14 04:34:18;;;;;;;3.78;2.08;;;;;;;8.65;100.00;101566.69;4794242;29;20034;-78
2021/09/14 04:36:43;;;;;;;4.32;2.40;;;;;;;8.67;100.00;101560.13;4789627;29;20043;-78
2021/09/14 04:39:09;;;;;;;6.63;2.75;;;;;;;8.80;100.00;101575.72;4802870;29;20042;-78
2021/09/14 04:41:34;;;;;;;8.88;2.63;;;;;;;8.84;100.00;101577.09;4802166;29;20046;-78
2021/09/14 04:44:00;;;;;;;8.00;3.00;;;;;;;8.88;100.00;101581.09;4789659;29;20129;-78
2021/09/14 04:46:25;;;;;;;8.68;2.58;;;;;;;8.91;100.00;101574.56;4788658;29;20123;-78
2021/09/14 04:48:50;;;;;;;8.57;3.20;;;;;;;8.95;100.00;101581.25;4806165;29;20195;-78
2021/09/14 04:51:16;;;;;;;9.30;3.28;;;;;;;9.02;100.00;101579.56;4809373;29;20076;-78
2021/09/14 04:53:42;;;;;;;11.98;3.28;;;;;;;9.14;100.00;101582.75;4809249;29;20031;-78
2021/09/14 04:56:07;;;;;;;9.45;3.50;;;;;;;9.17;100.00;101577.00;4789426;29;20023;-77
2021/09/14 04:58:34;;;;;;;7.47;3.97;;;;;;;9.30;100.00;101589.91;4806100;29;20816;-78
2021/09/14 05:01:03;;;;;;;10.43;3.60;;;;;;;9.37;100.00;101589.09;4797047;29;20027;-78
2021/09/14 05:03:28;;;;;;;7.80;4.03;;;;;;;9.45;100.00;101590.06;4792344;29;20047;-78
2021/09/14 05:05:54;;;;;;;6.75;3.55;;;;;;;9.35;100.00;101564.22;4793632;29;20058;-78
2021/09/14 05:08:20;;;;;;;15.05;3.90;;;;;;;9.53;100.00;101582.78;4793239;29;20031;-78
2021/09/14 05:10:45;;;;;;;11.15;3.70;;;;;;;9.40;100.00;101564.56;4794510;29;20039;-78
2021/09/14 05:13:11;;;;;;;7.50;3.50;;;;;;;9.41;100.00;101557.34;4793514;29;20436;-78
2021/09/14 05:15:42;;;;;;;8.15;3.58;;;;;;;9.47;100.00;101561.16;4792812;29;20057;-78
2021/09/14 05:18:11;;;;;;;8.10;3.40;;;;;;;9.41;100.00;101549.28;4791591;29;20049;-79
2021/09/14 05:20:38;;;;;;;10.50;3.85;;;;;;;9.70;100.00;101578.22;4763793;29;20117;-78
2021/09/14 05:23:14;;;;;;;12.65;4.03;;;;;;;9.74;100.00;101574.16;4793836;29;20043;-78
2021/09/14 05:25:42;;;;;;;10.45;3.97;;;;;;;9.88;100.00;101577.97;4809061;29;20033;-78
2021/09/14 05:28:09;;;;;;;9.10;4.60;;;;;;;9.79;100.00;101550.28;4808919;29;20095;-78
2021/09/14 05:30:35;;;;;;;9.48;4.13;;;;;;;10.04;100.00;101563.59;4778428;29;20068;-78
2021/09/14 05:33:02;;;;;;;10.57;4.13;;;;;;;10.33;100.00;101579.06;4795843;29;20043;-78
2021/09/14 05:35:35;;;;;;;13.30;4.28;;;;;;;10.46;100.00;101579.34;4793971;29;20039;-78
2021/09/14 05:38:00;;;;;;;9.27;4.20;;;;;;;10.48;100.00;101550.38;4794854;29;20033;-78
2021/09/14 05:40:26;;;;;;;9.73;3.65;;;;;;;10.73;100.00;101579.81;4792789;29;20038;-79
2021/09/14 05:42:51;;;;;;;5.85;2.97;;;;;;;10.62;100.00;101575.66;4803445;29;20026;-79
2021/09/14 05:45:16;;;;;;;6.75;3.65;;;;;;;10.75;100.00;101588.50;4779181;29;20465;-78
2021/09/14 05:47:44;;;;;;;8.25;3.05;;;;;;;10.72;100.00;101589.72;4793594;29;20129;-78
2021/09/14 05:50:11;;;;;;;9.55;3.47;;;;;;;10.86;100.00;101592.63;4803403;29;20073;-78
2021/09/14 05:52:36;;;;;;;11.27;3.97;;;;;;;10.88;100.00;101590.59;4776164;29;20134;-78
2021/09/14 05:55:04;;;;;;;11.77;3.80;;;;;;;11.06;100.00;101596.50;4791018;29;20113;-79
2021/09/14 05:57:29;;;;;;;9.35;3.63;;;;;;;11.16;100.00;101588.13;4802570;29;20419;-78
2021/09/14 05:59:54;;;;;;;9.32;3.75;;;;;;;11.18;100.00;101589.63;4805738;29;20103;-78
2021/09/14 06:02:20;;;;;;;9.27;3.95;;;;;;;11.27;100.00;101588.53;4776831;29;20031;-79
2021/09/14 06:04:45;;;;;;;7.90;3.83;;;;;;;11.36;100.00;101586.59;4791503;29;20043;-79
2021/09/14 06:07:11;;;;;;;7.55;3.85;;;;;;;11.51;100.00;101602.75;4796045;29;20039;-78
2021/09/14 06:09:36;;;;;;;11.32;4.10;;;;;;;11.63;100.00;101593.19;4806709;29;20070;-78
2021/09/14 06:12:01;;;;;;;9.00;3.70;;;;;;;11.62;100.00;101575.34;4805996;29;20202;-78
2021/09/14 06:14:27;;;;;;;7.03;3.50;;;;;;;11.38;100.00;101529.81;4805127;29;20111;-78
2021/09/14 06:16:52;;;;;;;10.13;3.80;;;;;;;12.00;100.00;101602.19;4806045;29;20030;-78
2021/09/14 06:19:18;;;;;;;9.13;3.92;;;;;;;12.12;100.00;101608.78;4806783;29;20043;-78
2021/09/14 06:21:44;;;;;;;9.00;3.80;;;;;;;12.22;100.00;101609.31;4807418;29;20048;-78
2021/09/14 06:24:10;;;;;;;10.13;3.80;;;;;;;12.10;100.00;101574.91;4809805;29;20038;-79
2021/09/14 06:26:36;;;;;;;5.97;3.40;;;;;;;12.29;100.00;101601.28;4806224;29;20184;-79
2021/09/14 06:29:02;;;;;;;8.55;3.83;;;;;;;12.18;100.00;101585.56;4790704;29;20121;-79
2021/09/14 06:31:28;;;;;;;8.80;3.70;;;;;;;12.36;100.00;101609.47;4803904;29;20332;-78
2021/09/14 06:33:53;;;;;;;8.50;4.00;;;;;;;12.34;100.00;101589.91;4776647;29;20035;-78
2021/09/14 06:36:24;;;;;;;8.73;4.07;;;;;;;12.58;100.00;101613.00;4790229;29;20056;-79
2021/09/14 06:38:50;;;;;;;12.43;4.60;;;;;;;12.79;100.00;101610.31;4806281;29;20027;-78
2021/09/14 06:41:15;;;;;;;10.73;4.65;;;;;;;12.92;100.00;101607.72;4806871;29;20035;-78
2021/09/14 06:43:41;;;;;;;12.15;4.63;;;;;;;12.95;100.00;101601.09;4820930;29;20075;-79
2021/09/14 06:46:06;;;;;;;13.45;4.45;;;;;;;13.07;100.00;101604.91;4806332;29;20106;-79
2021/09/14 06:48:33;;;;;;;11.35;4.18;;;;;;;13.14;100.00;101613.94;4789804;29;20039;-79
2021/09/14 06:50:59;;;;;;;11.10;4.80;;;;;;;13.26;100.00;101616.94;4801807;29;20474;-78
2021/09/14 06:53:28;;;;;;;9.68;4.10;;;;;;;13.32;100.00;101605.34;4792860;29;20039;-79
2021/09/14 06:55:54;;;;;;;7.97;4.10;;;;;;;13.40;100.00;101607.88;4806348;29;20030;-78
2021/09/14 06:58:19;;;;;;;11.77;4.35;;;;;;;13.28;100.00;101576.22;4791726;29;20458;-79
2021/09/14 07:00:45;;;;;;;11.90;4.10;;;;;;;13.36;100.00;101585.00;4793077;29;20486;-79
2021/09/14 07:03:10;;;;;;;9.43;3.53;;;;;;;13.57;100.00;101613.81;4810001;29;20043;-79
2021/09/14 07:05:36;;;;;;;9.10;3.70;;;;;;;13.65;100.00;101615.53;4806942;29;20046;-79
2021/09/14 07:08:01;;;;;;;16.42;4.35;;;;;;;13.76;100.00;101620.38;4807482;29;20377;-79
2021/09/14 07:10:28;;;;;;;15.85;4.97;;;;;;;13.94;100.00;101625.25;4793100;29;20256;-80
2021/09/14 07:12:54;;;;;;;20.25;4.15;;;;;;;14.07;100.00;101610.91;4790021;29;20056;-79
2021/09/14 07:15:19;;;;;;;12.48;3.67;;;;;;;14.26;100.00;101617.44;4791068;29;20142;-79
2021/09/14 07:17:46;;;;;;;9.23;3.60;;;;;;;14.52;100.00;101622.97;4802679;29;20058;-80
2021/09/14 07:20:11;;;;;;;7.40;3.55;;;;;;;14.56;100.00;101597.13;4765160;29;20122;-80
2021/09/14 07:22:38;;;;;;;11.18;4.05;;;;;;;14.74;100.00;101611.97;4808897;29;20035;-81
2021/09/14 07:25:04;;;;;;;13.13;3.70;;;;;;;14.98;100.00;101622.19;4816337;29;20073;-80
2021/09/14 07:27:29;;;;;;;11.15;3.60;;;;;;;15.15;100.00;101627.19;4810165;29;20056;-81
2021/09/14 07:29:55;;;;;;;11.70;3.28;;;;;;;15.28;100.00;101625.28;4808263;29;20027;-80
2021/09/14 07:32:20;;;;;;;8.82;3.35;;;;;;;15.42;100.00;101623.41;4789876;29;20103;-79
2021/09/14 07:34:46;;;;;;;8.63;3.60;;;;;;;15.46;100.00;101627.38;4806588;29;20038;-79
2021/09/14 07:37:11;;;;;;;7.93;3.08;;;;;;;15.33;100.00;101603.00;4806590;29;20058;-80
2021/09/14 07:39:36;;;;;;;10.48;3.55;;;;;;;15.57;100.00;101635.91;4790602;29;20054;-79
2021/09/14 07:42:02;;;;;;;9.93;3.50;;;;;;;15.46;100.00;101596.69;4807525;29;20485;-79
2021/09/14 07:44:28;;;;;;;17.85;3.33;;;;;;;15.54;100.00;101595.63;4791848;29;20375;-79
2021/09/14 07:46:56;;;;;;;12.05;3.20;;;;;;;15.77;100.00;101625.88;4790494;29;20038;-78
2021/09/14 07:49:22;;;;;;;10.07;3.10;;;;;;;15.77;100.00;101615.00;4791403;29;20375;-79
2021/09/14 07:51:47;;;;;;;10.80;2.90;;;;;;;16.02;100.00;101638.72;4780935;29;20034;-79
2021/09/14 07:54:13;;;;;;;6.75;3.03;;;;;;;16.07;100.00;101642.47;4813459;29;20370;-81
2021/09/14 07:56:38;;;;;;;5.10;2.70;;;;;;;16.12;100.00;101639.91;4785048;29;20054;-80
2021/09/14 07:59:04;;;;;;;7.95;2.83;;;;;;;16.16;100.00;101630.31;4794277;29;20107;-80
2021/09/14 08:01:29;;;;;;;9.38;3.22;;;;;;;16.31;100.00;101640.88;4814137;29;20428;-81
2021/09/14 08:03:54;;;;;;;9.80;2.60;;;;;;;16.39;99.89;101642.50;4814515;29;20041;-81
2021/09/14 08:06:20;;;;;;;5.97;2.30;;;;;;;16.47;99.74;101646.88;4797913;29;20169;-81
2021/09/14 08:08:46;;;;;;;7.80;2.63;;;;;;;16.57;99.24;101649.94;4802091;29;20038;-81
2021/09/14 08:11:12;;;;;;;7.50;2.45;;;;;;;16.60;98.45;101644.91;4813722;29;20043;-80
2021/09/14 08:13:38;;;;;;;4.57;1.83;;;;;;;16.55;98.15;101638.44;4814775;29;20026;-81
2021/09/14 08:16:04;;;;;;;7.47;2.28;;;;;;;16.66;97.42;101652.19;4806630;29;20043;-80
2021/09/14 08:18:30;;;;;;;9.10;2.03;;;;;;;16.65;97.26;101630.66;4800841;29;20557;-81
2021/09/14 08:20:56;;;;;;;5.32;1.98;;;;;;;16.89;96.45;101657.09;4799766;29;20192;-81
2021/09/14 08:23:22;;;;;;;6.28;1.95;;;;;;;16.91;96.38;101659.56;4811048;29;20058;-80
2021/09/14 08:25:47;;;;;;;5.45;1.95;;;;;;;16.98;96.11;101665.78;4787219;29;20035;-81
2021/09/14 08:28:12;;;;;;;7.53;2.20;;;;;;;16.57;95.70;101588.28;4795560;29;20489;-81
2021/09/14 08:30:38;;;;;;;5.72;1.85;;;;;;;17.05;94.93;101665.72;4815199;29;20041;-81
2021/09/14 08:33:04;;;;;;;6.40;1.95;;;;;;;17.10;94.71;101668.63;4824747;29;20075;-81
2021/09/14 08:35:32;;;;;;;4.35;2.00;;;;;;;17.20;94.09;101666.25;4811735;29;20039;-83
2021/09/14 08:37:58;;;;;;;5.40;2.00;;;;;;;17.17;93.30;101647.66;4811322;29;20044;-81
2021/09/14 08:40:24;;;;;;;7.75;2.00;;;;;;;17.29;93.10;101667.63;4788805;29;20026;-82
2021/09/14 08:42:50;;;;;;;6.78;2.13;;;;;;;17.35;92.24;101663.16;4804024;29;20031;-81
2021/09/14 08:45:17;;;;;;;5.45;2.08;;;;;;;17.42;91.81;101671.28;4804537;29;20063;-81
2021/09/14 08:47:42;;;;;;;3.70;1.67;;;;;;;17.45;91.45;101668.09;4802600;29;20072;-81
2021/09/14 08:50:10;;;;;;;5.97;1.92;;;;;;;17.43;91.04;101667.53;4818297;29;20054;-81
2021/09/14 08:52:35;;;;;;;5.22;1.75;;;;;;;17.53;90.86;101679.56;4805825;29;20034;-81
2021/09/14 08:55:02;;;;;;;8.40;1.80;;;;;;;17.47;90.18;101669.56;4788217;29;20042;-79
2021/09/14 08:57:27;;;;;;;3.53;1.60;;;;;;;17.36;89.80;101656.69;4805584;29;20045;-81
2021/09/14 08:59:56;;;;;;;3.92;1.70;;;;;;;17.55;89.17;101682.88;4815202;29;20058;-81
2021/09/14 09:02:22;;;;;;;4.75;1.73;;;;;;;17.60;89.11;101684.94;4815699;29;20041;-80
2021/09/14 09:05:13;;;;;;;3.20;1.52;;;;;;;17.68;89.48;101681.94;4814930;29;20035;-81
2021/09/14 09:07:40;;;;;;;5.88;1.90;;;;;;;17.87;88.40;101684.69;4801594;29;20042;-81
2021/09/14 09:10:14;;;;;;;3.85;1.67;;;;;;;17.93;89.04;101683.78;4789396;29;20035;-81
2021/09/14 09:12:46;;;;;;;6.20;1.70;;;;;;;17.91;88.29;101669.56;4816848;29;20107;-82
2021/09/14 09:15:23;;;;;;;8.00;1.80;;;;;;;17.91;87.74;101675.00;4814389;29;20042;-82
2021/09/14 09:18:09;;;;;;;9.75;1.80;;;;;;;17.99;87.46;101658.38;4807386;29;20035;-82
2021/09/14 09:20:42;;;;;;;4.25;1.65;;;;;;;18.15;86.62;101665.94;4813853;29;20056;-82
2021/09/14 09:23:10;;;;;;;5.22;1.73;;;;;;;18.16;86.07;101672.22;4824773;29;20055;-82
2021/09/14 09:25:36;;;;;;;6.50;1.70;;;;;;;18.25;85.62;101660.78;4826021;29;20106;-82
2021/09/14 09:28:10;;;;;;;5.70;1.60;;;;;;;18.43;84.98;101664.50;4806626;29;20042;-81
2021/09/14 09:30:41;;;;;;;6.03;1.70;;;;;;;18.48;84.15;101672.84;4825354;29;20027;-82
2021/09/14 09:35:42;;;;;;;7.82;2.00;;;;;;;18.35;83.97;101673.03;4895971;24;20043;-83
2021/09/14 09:38:09;;;;;;;7.55;1.83;;;;;;;17.20;83.69;101489.47;4816204;29;20038;-83
2021/09/14 09:50:56;;;;;;;4.80;1.38;;;;;;;18.34;79.84;101653.09;5428093;24;20083;-83
2021/09/14 09:55:57;;;;;;;4.95;1.35;;;;;;;18.62;77.85;101636.16;5191824;24;20052;-84
2021/09/14 09:58:23;;;;;;;5.60;1.52;;;;;;;18.82;77.26;101671.31;4810989;29;20050;-83
2021/09/14 10:00:57;;;;;;;2.67;1.20;;;;;;;17.96;77.30;101547.19;4895264;24;20054;-83
2021/09/14 10:06:02;;;;;;;5.70;1.88;;;;;;;17.81;78.28;101529.38;5375231;24;20102;-83
2021/09/14 10:21:25;;;;;;;7.38;1.83;;;;;;;17.93;79.15;101515.78;5082743;24;20109;-83
2021/09/14 10:23:54;;;;;;;9.68;1.90;;;;;;;18.26;79.01;101569.78;4814976;29;20015;-81
2021/09/14 10:26:32;;;;;;;6.07;1.77;;;;;;;18.91;79.31;101690.94;4815062;29;20035;-83
2021/09/14 10:28:57;;;;;;;7.70;2.33;;;;;;;17.78;79.29;101497.16;4824282;29;20011;-83
2021/09/14 10:31:26;;;;;;;8.45;2.10;;;;;;;18.11;79.40;101535.88;4828188;29;20034;-83
2021/09/14 10:36:46;;;;;;;5.30;1.95;;;;;;;19.22;79.29;101662.50;5026207;24;20041;-81
2021/09/14 10:39:25;;;;;;;7.53;2.15;;;;;;;18.50;79.25;101516.19;4846600;29;20034;-81
2021/09/14 10:41:52;;;;;;;6.68;1.85;;;;;;;18.75;79.63;101539.72;4844676;29;20042;-79
2021/09/14 10:44:45;;;;;;;6.22;1.80;;;;;;;19.40;79.50;101662.41;4862950;29;20017;-81
2021/09/14 10:47:12;;;;;;;5.55;2.00;;;;;;;18.69;79.52;101527.84;4858031;29;20026;-81
2021/09/14 10:49:51;;;;;;;12.30;1.92;;;;;;;19.40;80.08;101651.50;4860100;29;20018;-82
2021/09/14 10:52:40;;;;;;;7.82;2.08;;;;;;;19.31;80.53;101646.63;4848133;29;20009;-82
2021/09/14 10:55:24;;;;;;;7.95;1.98;;;;;;;19.05;80.74;101645.19;4855566;29;20390;-81
2021/09/14 10:57:52;;;;;;;5.47;2.00;;;;;;;17.72;82.04;101464.56;4847445;29;20022;-83
2021/09/14 11:00:25;;;;;;;7.13;2.17;;;;;;;18.19;83.48;101568.25;4859730;29;20026;-83
2021/09/14 11:03:02;;;;;;;5.83;1.80;;;;;;;18.05;84.95;101587.47;4867194;29;20030;-83
2021/09/14 11:05:29;;;;;;;7.22;2.00;;;;;;;17.29;86.71;101490.84;4834042;29;20023;-82
2021/09/14 11:08:08;;;;;;;9.43;2.20;;;;;;;17.17;87.62;101478.22;4842747;29;20102;-83
2021/09/14 11:10:39;;;;;;;8.63;2.20;;;;;;;17.88;88.39;101575.56;4850282;29;20030;-84
2021/09/14 11:13:05;;;;;;;5.47;2.25;;;;;;;17.26;89.15;101485.84;4855003;29;20015;-83
2021/09/14 11:15:33;;;;;;;7.60;2.00;;;;;;;17.64;89.05;101549.22;4852678;29;20158;-83
2021/09/14 11:17:59;;;;;;;11.60;2.50;;;;;;;17.94;89.24;101581.97;4868624;29;20079;-82
2021/09/14 11:20:26;;;;;;;8.77;2.17;;;;;;;17.44;89.44;101522.25;4847186;29;20090;-83
2021/09/14 11:22:53;;;;;;;8.65;2.20;;;;;;;17.30;89.48;101518.84;4865024;29;20097;-83
2021/09/14 11:25:22;;;;;;;7.63;2.25;;;;;;;17.77;89.76;101587.22;4883644;29;20053;-82
2021/09/14 11:28:09;;;;;;;8.05;2.15;;;;;;;16.98;89.40;101477.34;4943263;23;20050;-82
2021/09/14 11:30:36;;;;;;;7.60;2.00;;;;;;;17.00;89.99;101464.38;4814201;29;20026;-82
2021/09/14 11:33:03;;;;;;;9.10;2.33;;;;;;;17.02;90.60;101478.56;4830137;29;20035;-83
2021/09/14 11:38:10;;;;;;;9.00;2.38;;;;;;;17.06;91.26;101471.63;5737576;24;20055;-82
2021/09/14 11:53:33;;;;;;;11.13;2.13;;;;;;;17.02;92.70;101471.25;5180701;24;20058;-82
2021/09/14 11:55:59;;;;;;;7.63;1.98;;;;;;;17.24;92.57;101492.56;4947422;24;20068;-83
2021/09/14 11:58:34;;;;;;;7.22;2.08;;;;;;;18.23;92.20;101640.25;4798004;30;20103;-82
2021/09/14 12:01:07;;;;;;;7.80;2.40;;;;;;;18.19;91.37;101639.88;4780382;30;20032;-80
2021/09/14 12:03:38;;;;;;;10.02;2.08;;;;;;;17.79;90.89;101580.47;4789749;29;20028;-82
2021/09/14 12:06:20;;;;;;;9.50;2.38;;;;;;;17.15;90.69;101470.25;4793992;29;20123;-81
2021/09/14 12:08:46;;;;;;;7.63;2.13;;;;;;;17.31;90.92;101490.59;4785375;30;20046;-79
2021/09/14 12:11:23;;;;;;;12.32;2.55;;;;;;;17.86;90.85;101560.50;4784535;30;20028;-79
2021/09/14 12:13:58;;;;;;;8.07;2.47;;;;;;;18.37;91.03;101640.91;4792473;30;20028;-81
2021/09/14 12:16:25;;;;;;;;;;;;;;;18.28;91.21;101638.53;5043114;24;20061;-83
2021/09/14 12:21:29;;;;;;;9.90;2.20;;;;;;;17.05;91.05;101473.53;5616280;24;20043;-81
2021/09/14 12:23:56;;;;;;;9.07;2.53;;;;;;;16.93;91.02;101464.44;4793193;30;20042;-81
2021/09/14 12:26:42;;;;;;;8.43;2.20;;;;;;;17.03;91.77;101477.53;4797616;29;20046;-81
2021/09/14 12:29:10;;;;;;;10.25;2.45;;;;;;;17.60;92.25;101576.91;4799399;29;20027;-80
2021/09/14 12:31:36;;;;;;;8.85;2.20;;;;;;;17.36;92.29;101537.81;4794448;29;20027;-81
2021/09/14 12:46:55;;;;;;;7.85;1.90;;;;;;;18.18;90.95;101640.09;5011274;24;20043;-81
2021/09/14 12:49:21;;;;;;;7.40;2.20;;;;;;;18.08;90.98;101635.22;4795324;30;20031;-81
2021/09/14 12:51:53;;;;;;;8.02;1.80;;;;;;;18.15;90.93;101637.88;4811021;29;20027;-80
2021/09/14 12:54:19;;;;;;;4.38;1.55;;;;;;;18.18;91.08;101649.13;4792343;29;20015;-81
2021/09/14 12:56:45;;;;;;;6.63;1.50;;;;;;;17.90;91.22;101616.16;4801372;30;20031;-81
2021/09/14 12:59:10;;;;;;;9.10;1.77;;;;;;;17.19;91.17;101484.25;4810518;29;20032;-81
2021/09/14 13:01:36;;;;;;;7.47;1.90;;;;;;;18.19;91.42;101650.78;4783173;29;20023;-80
2021/09/14 13:04:02;;;;;;;5.55;1.52;;;;;;;18.23;91.61;101656.59;4773292;30;20098;-81
2021/09/14 13:06:28;;;;;;;7.50;1.60;;;;;;;17.18;91.39;101497.00;4780428;29;20040;-81
2021/09/14 13:08:53;;;;;;;6.45;1.63;;;;;;;17.90;91.45;101629.78;4791743;30;20019;-79
2021/09/14 13:11:19;;;;;;;6.18;1.30;;;;;;;17.80;91.38;101608.53;4788044;29;20032;-82
2021/09/14 13:16:29;;;;;;;9.68;1.55;;;;;;;17.07;90.99;101495.03;4809464;29;20042;-83
2021/09/14 13:18:55;;;;;;;6.43;1.60;;;;;;;17.68;91.13;101603.00;4808431;29;20079;-84
2021/09/14 13:21:22;;;;;;;5.05;1.30;;;;;;;17.92;90.59;101644.84;4961897;24;20818;-80
2021/09/14 13:26:25;;;;;;;7.72;1.50;;;;;;;17.58;90.89;101608.09;4826212;24;20059;-81
2021/09/14 13:28:51;;;;;;;6.80;1.48;;;;;;;16.89;91.16;101525.78;4797281;30;20016;-81
2021/09/14 13:31:18;;;;;;;6.75;1.80;;;;;;;16.79;91.59;101512.69;4799515;29;20058;-82
2021/09/14 13:33:44;;;;;;;7.32;1.50;;;;;;;16.89;91.82;101542.06;4819879;29;20036;-81
2021/09/14 13:36:11;;;;;;;6.50;1.60;;;;;;;17.23;92.77;101616.00;4801776;29;20030;-82
2021/09/14 13:38:37;;;;;;;6.15;1.58;;;;;;;16.86;93.86;101580.56;4803337;29;20027;-82